Time;durP1;ratioP1;P1;durP2;ratioP2;P2;SDS_P1;SDS_P2;PMS_P1;PMS_P2;Temp;Humidity;BMP_temperature;BMP_pressure;BME280_temperature;BME280_humidity;BME280_pressure;Samples;Min_cycle;Max_cycle;Signal;HPM_P1;HPM_P2
2022/12/21 00:00:24;;;;;;;1.30;1.20;;;18.90;37.50;;;;;;5019812;28;20226;-63
2022/12/21 00:02:49;;;;;;;1.30;1.10;;;18.90;37.50;;;;;;5014081;28;20328;-63
2022/12/21 00:05:15;;;;;;;2.03;1.40;;;18.90;37.60;;;;;;5015516;28;23320;-64
2022/12/21 00:07:40;;;;;;;1.40;1.30;;;18.90;37.50;;;;;;5019495;28;20305;-63
2022/12/21 00:10:07;;;;;;;1.30;1.20;;;18.90;37.60;;;;;;5016973;28;20230;-64
2022/12/21 00:12:32;;;;;;;1.43;1.33;;;18.90;37.60;;;;;;5014421;28;20219;-64
2022/12/21 00:14:58;;;;;;;4.30;1.60;;;18.90;37.60;;;;;;5012585;28;20463;-64
2022/12/21 00:17:23;;;;;;;1.20;1.10;;;18.90;37.60;;;;;;5018654;28;20264;-63
2022/12/21 00:19:49;;;;;;;1.20;1.10;;;18.90;37.60;;;;;;5009230;28;20249;-63
2022/12/21 00:22:14;;;;;;;1.30;1.20;;;18.90;37.60;;;;;;5017187;28;20313;-63
2022/12/21 00:24:40;;;;;;;1.50;1.40;;;18.90;37.60;;;;;;5019042;28;20222;-63
2022/12/21 00:27:05;;;;;;;1.30;1.20;;;18.90;37.60;;;;;;5016067;28;20608;-64
2022/12/21 00:29:31;;;;;;;1.50;1.20;;;18.90;37.70;;;;;;4998198;28;20223;-63
2022/12/21 00:31:56;;;;;;;1.37;1.27;;;18.90;37.60;;;;;;5014013;28;20227;-63
2022/12/21 00:34:22;;;;;;;1.17;1.07;;;18.90;37.70;;;;;;5016506;28;20651;-63
2022/12/21 00:36:49;;;;;;;1.40;1.30;;;18.90;37.70;;;;;;5016531;28;22027;-64
2022/12/21 00:39:16;;;;;;;1.50;1.40;;;18.90;37.70;;;;;;5012706;28;20965;-63
2022/12/21 00:41:42;;;;;;;1.10;1.00;;;18.90;37.60;;;;;;5015518;28;20454;-63
2022/12/21 00:44:08;;;;;;;1.23;1.13;;;18.90;37.70;;;;;;5012746;28;20434;-63
2022/12/21 00:46:34;;;;;;;1.20;1.10;;;18.90;37.70;;;;;;5013143;28;20962;-63
2022/12/21 00:49:04;;;;;;;1.40;1.30;;;18.90;37.70;;;;;;5012751;28;20219;-63
2022/12/21 00:51:31;;;;;;;1.20;1.10;;;18.90;37.70;;;;;;5016050;28;20445;-63
2022/12/21 00:53:58;;;;;;;1.40;1.30;;;18.90;37.70;;;;;;5005061;28;20446;-63
2022/12/21 00:56:25;;;;;;;1.30;1.20;;;18.90;37.70;;;;;;5019948;28;20922;-63
2022/12/21 00:58:51;;;;;;;1.57;1.47;;;18.90;37.70;;;;;;5018162;28;20469;-64
2022/12/21 01:01:23;;;;;;;1.97;1.20;;;18.90;37.60;;;;;;5018273;28;20550;-63
2022/12/21 01:03:49;;;;;;;1.50;1.40;;;18.80;37.60;;;;;;5013167;28;20725;-63
2022/12/21 01:06:31;;;;;;;1.33;1.10;;;18.90;37.80;;;;;;5015440;28;20444;-63
2022/12/21 01:08:57;;;;;;;1.40;1.30;;;18.90;37.70;;;;;;5016861;28;20436;-63
2022/12/21 01:11:24;;;;;;;1.20;1.10;;;18.90;37.70;;;;;;5018549;28;20476;-63
2022/12/21 01:13:51;;;;;;;1.30;1.20;;;18.90;37.70;;;;;;5007587;28;20435;-63
2022/12/21 01:16:26;;;;;;;1.33;1.23;;;18.90;37.70;;;;;;5016308;28;21182;-63
2022/12/21 01:18:51;;;;;;;1.23;1.13;;;18.90;37.70;;;;;;5016017;28;20451;-63
2022/12/21 01:21:26;;;;;;;1.23;1.13;;;18.90;37.70;;;;;;5021468;28;20479;-64
2022/12/21 01:23:53;;;;;;;1.20;1.10;;;18.80;37.60;;;;;;5015908;28;20266;-63
2022/12/21 01:26:19;;;;;;;1.23;1.13;;;18.90;37.80;;;;;;5021618;28;20460;-63
2022/12/21 01:28:45;;;;;;;1.33;1.10;;;18.80;37.70;;;;;;5011816;28;20423;-64
2022/12/21 01:31:11;;;;;;;1.20;1.10;;;18.80;37.60;;;;;;5018321;28;20480;-64
2022/12/21 01:33:37;;;;;;;1.20;1.10;;;18.90;37.80;;;;;;5020350;28;20273;-63
2022/12/21 01:36:08;;;;;;;1.20;1.10;;;18.80;37.70;;;;;;5020814;28;20434;-64
2022/12/21 01:38:34;;;;;;;1.20;1.10;;;18.90;37.90;;;;;;5018379;28;20783;-63
2022/12/21 01:41:00;;;;;;;1.60;1.50;;;18.80;37.60;;;;;;5018682;28;20992;-64
2022/12/21 01:43:49;;;;;;;1.83;1.10;;;18.90;37.80;;;;;;5022770;28;20422;-63
2022/12/21 01:46:20;;;;;;;1.53;1.20;;;18.90;37.70;;;;;;5013593;28;21020;-63
2022/12/21 01:49:00;;;;;;;1.30;1.20;;;18.90;37.80;;;;;;5021812;28;20422;-63
2022/12/21 01:51:26;;;;;;;1.60;1.50;;;18.90;37.80;;;;;;5022175;28;20941;-64
2022/12/21 01:54:08;;;;;;;1.37;1.27;;;18.90;38.70;;;;;;5026253;28;20943;-64
2022/12/21 01:56:36;;;;;;;1.50;1.27;;;18.90;37.80;;;;;;5021658;28;20245;-63
2022/12/21 01:59:15;;;;;;;1.27;1.17;;;18.80;37.70;;;;;;5023075;28;20442;-63
2022/12/21 02:01:40;;;;;;;1.20;1.10;;;18.90;37.80;;;;;;5015628;28;20837;-64
2022/12/21 02:04:07;;;;;;;1.00;1.00;;;18.80;37.80;;;;;;5018961;28;20495;-63
2022/12/21 02:06:47;;;;;;;1.20;1.10;;;18.80;37.80;;;;;;5021677;28;20254;-64
2022/12/21 02:09:14;;;;;;;1.10;1.00;;;18.80;37.70;;;;;;5024457;28;20423;-63
2022/12/21 02:11:40;;;;;;;1.37;1.27;;;18.90;37.90;;;;;;5023786;28;20807;-63
2022/12/21 02:14:14;;;;;;;1.30;1.20;;;18.80;37.80;;;;;;5021897;28;20468;-63
2022/12/21 02:17:06;;;;;;;1.23;1.13;;;18.80;37.80;;;;;;5022205;28;20692;-63
2022/12/21 02:19:56;;;;;;;1.20;1.10;;;18.80;37.80;;;;;;4972156;28;20427;-63
2022/12/21 02:22:58;;;;;;;1.33;1.23;;;18.80;37.80;;;;;;5021579;28;20423;-63
2022/12/21 02:26:01;;;;;;;1.30;1.20;;;18.80;37.80;;;;;;5019124;28;20430;-63
2022/12/21 02:28:56;;;;;;;1.27;1.17;;;18.80;37.80;;;;;;5021065;28;20452;-64
2022/12/21 02:31:31;;;;;;;1.90;1.40;;;18.80;37.90;;;;;;5018559;28;22418;-63
2022/12/21 02:34:23;;;;;;;1.20;1.10;;;18.80;37.80;;;;;;5015864;28;20434;-65
2022/12/21 02:37:07;;;;;;;1.20;1.10;;;18.80;37.90;;;;;;5021047;28;20422;-64
2022/12/21 02:40:02;;;;;;;1.00;1.00;;;18.80;37.90;;;;;;5021110;28;20602;-64
2022/12/21 02:45:45;;;;;;;1.10;1.03;;;18.80;37.90;;;;;;5015808;28;20858;-63
2022/12/21 02:48:19;;;;;;;1.40;1.30;;;18.80;38.10;;;;;;5023627;28;20939;-64
2022/12/21 02:50:51;;;;;;;1.33;1.23;;;18.80;38.10;;;;;;5022279;28;20960;-63
2022/12/21 02:53:22;;;;;;;1.20;1.10;;;18.80;38.00;;;;;;5021946;28;20460;-63
2022/12/21 02:55:47;;;;;;;1.20;1.10;;;18.80;38.10;;;;;;5019873;28;20434;-63
2022/12/21 02:58:14;;;;;;;1.47;1.20;;;18.80;38.00;;;;;;5016864;28;20457;-63
2022/12/21 03:00:52;;;;;;;1.30;1.20;;;18.80;38.10;;;;;;5018879;28;20215;-65
2022/12/21 03:03:50;;;;;;;1.30;1.20;;;18.80;38.00;;;;;;5021167;28;20888;-63
2022/12/21 03:06:34;;;;;;;1.17;1.07;;;18.80;38.00;;;;;;5018730;28;21041;-64
2022/12/21 03:09:09;;;;;;;1.10;1.00;;;18.80;38.00;;;;;;5023145;28;20427;-64
2022/12/21 03:11:52;;;;;;;1.30;1.20;;;18.80;38.00;;;;;;5018870;28;20446;-63
2022/12/21 03:14:50;;;;;;;1.20;1.10;;;18.80;38.00;;;;;;5019818;28;20967;-63
2022/12/21 03:17:39;;;;;;;1.37;1.27;;;18.80;38.00;;;;;;5022503;28;21025;-63
2022/12/21 03:20:05;;;;;;;1.13;1.03;;;18.80;38.10;;;;;;5022924;28;20598;-63
2022/12/21 03:22:41;;;;;;;1.27;1.17;;;18.80;38.10;;;;;;5023207;28;20506;-63
2022/12/21 03:25:17;;;;;;;1.40;1.30;;;18.80;38.10;;;;;;5023667;28;20437;-64
2022/12/21 03:27:48;;;;;;;1.20;1.10;;;18.80;38.10;;;;;;5020562;28;20435;-64
2022/12/21 03:30:16;;;;;;;1.63;1.10;;;18.80;38.10;;;;;;5023896;28;20431;-63
2022/12/21 03:33:01;;;;;;;1.20;1.10;;;18.80;38.10;;;;;;5018625;28;20826;-64
2022/12/21 03:35:32;;;;;;;1.10;1.00;;;18.80;38.00;;;;;;5018033;28;20443;-63
2022/12/21 03:38:02;;;;;;;1.43;1.00;;;18.80;38.10;;;;;;5004331;28;20807;-63
2022/12/21 03:40:32;;;;;;;1.40;1.30;;;18.80;38.10;;;;;;5022680;28;20426;-63
2022/12/21 03:43:09;;;;;;;1.40;1.30;;;18.80;38.20;;;;;;5018818;28;20449;-63
2022/12/21 03:45:42;;;;;;;1.20;1.10;;;18.80;38.10;;;;;;5022316;28;20430;-63
2022/12/21 03:48:22;;;;;;;1.20;1.10;;;18.80;38.10;;;;;;5021263;28;20463;-63
2022/12/21 03:50:50;;;;;;;0.90;0.90;;;18.80;38.10;;;;;;5019060;28;20455;-63
2022/12/21 03:53:28;;;;;;;1.30;1.20;;;18.80;38.20;;;;;;5021301;28;23776;-64
2022/12/21 03:55:59;;;;;;;1.23;1.10;;;18.80;38.10;;;;;;5023763;28;20442;-63
2022/12/21 03:58:25;;;;;;;1.37;1.27;;;18.80;38.10;;;;;;5018291;28;20433;-63
2022/12/21 04:01:13;;;;;;;1.20;1.10;;;18.80;38.20;;;;;;5014728;28;20444;-64
2022/12/21 04:03:42;;;;;;;1.10;1.00;;;18.80;38.10;;;;;;5019274;28;20419;-63
2022/12/21 04:06:13;;;;;;;1.10;1.10;;;18.80;38.10;;;;;;5019838;28;20583;-63
2022/12/21 04:08:39;;;;;;;1.63;0.90;;;18.80;38.10;;;;;;5020330;28;20439;-64
2022/12/21 04:11:05;;;;;;;1.37;1.27;;;18.80;38.10;;;;;;5021549;28;20464;-63
2022/12/21 04:13:30;;;;;;;1.97;1.87;;;18.80;38.20;;;;;;5001459;28;20471;-63
2022/12/21 04:16:05;;;;;;;1.03;1.00;;;18.80;38.40;;;;;;5023934;28;20246;-63
2022/12/21 04:21:17;;;;;;;1.20;1.10;;;18.80;38.20;;;;;;5022597;28;20888;-63
2022/12/21 04:29:10;;;;;;;1.20;1.10;;;18.80;38.20;;;;;;5025479;28;20472;-64
2022/12/21 04:31:36;;;;;;;1.00;1.00;;;18.80;38.20;;;;;;5022990;28;20419;-64
2022/12/21 04:34:01;;;;;;;1.20;1.10;;;18.80;38.20;;;;;;5023859;28;20296;-63
2022/12/21 04:39:11;;;;;;;1.30;1.20;;;18.80;38.20;;;;;;5024466;28;20237;-65
2022/12/21 04:41:37;;;;;;;1.10;1.00;;;18.80;38.20;;;;;;5021586;28;20942;-65
2022/12/21 04:44:02;;;;;;;1.10;1.00;;;18.80;38.20;;;;;;5019332;28;22014;-64
2022/12/21 04:46:28;;;;;;;1.30;1.20;;;18.80;38.20;;;;;;5022339;28;20281;-64
2022/12/21 04:48:54;;;;;;;1.33;1.13;;;18.80;38.20;;;;;;5024192;28;20225;-64
2022/12/21 04:51:23;;;;;;;1.40;1.30;;;18.80;38.20;;;;;;5024872;28;20250;-64
2022/12/21 04:53:49;;;;;;;1.20;1.10;;;18.80;38.20;;;;;;5025104;28;20223;-64
2022/12/21 04:56:15;;;;;;;1.00;0.93;;;18.80;38.20;;;;;;5023964;28;20438;-63
2022/12/21 04:58:41;;;;;;;1.13;1.03;;;18.80;38.20;;;;;;5022295;28;20222;-64
2022/12/21 05:01:11;;;;;;;1.73;1.20;;;18.80;38.20;;;;;;5018737;28;20449;-64
2022/12/21 05:03:37;;;;;;;1.37;1.27;;;18.80;38.10;;;;;;5020510;28;20352;-63
2022/12/21 05:06:03;;;;;;;1.13;1.03;;;18.90;38.10;;;;;;5019937;28;20435;-63
2022/12/21 05:08:29;;;;;;;0.87;0.87;;;18.90;38.00;;;;;;5025116;28;20327;-64
2022/12/21 05:10:54;;;;;;;1.10;1.00;;;18.90;38.00;;;;;;5024878;28;20737;-64
2022/12/21 05:13:20;;;;;;;0.90;0.90;;;18.90;38.00;;;;;;5024981;28;20448;-63
2022/12/21 05:15:45;;;;;;;1.53;1.20;;;18.90;37.90;;;;;;5019894;28;20264;-63
2022/12/21 05:18:11;;;;;;;2.07;1.37;;;18.90;37.90;;;;;;5021252;28;20617;-65
2022/12/21 05:20:36;;;;;;;1.10;1.00;;;18.90;38.00;;;;;;5021815;28;20214;-64
2022/12/21 05:23:02;;;;;;;1.20;0.93;;;18.90;37.90;;;;;;5021185;28;20214;-65
2022/12/21 05:25:27;;;;;;;1.27;1.17;;;18.90;37.90;;;;;;5018676;28;20746;-64
2022/12/21 05:27:53;;;;;;;1.10;1.03;;;18.90;37.90;;;;;;5015678;28;20230;-64
2022/12/21 05:30:19;;;;;;;1.20;1.10;;;19.00;37.90;;;;;;5021440;28;20264;-63
2022/12/21 05:32:44;;;;;;;1.10;1.00;;;18.90;37.90;;;;;;5018933;28;20219;-65
2022/12/21 05:35:10;;;;;;;1.63;1.10;;;18.90;37.80;;;;;;5014831;28;20235;-64
2022/12/21 05:37:35;;;;;;;1.37;1.00;;;19.00;37.80;;;;;;5018431;28;20230;-63
2022/12/21 05:40:01;;;;;;;1.37;1.20;;;19.00;37.80;;;;;;5020739;28;20222;-63
2022/12/21 05:42:26;;;;;;;1.17;1.07;;;19.00;37.90;;;;;;5021383;28;20210;-63
2022/12/21 05:44:52;;;;;;;0.90;0.90;;;19.00;37.90;;;;;;5021443;28;20674;-63
2022/12/21 05:47:17;;;;;;;0.93;0.93;;;19.00;37.80;;;;;;5019375;28;20233;-63
2022/12/21 05:49:43;;;;;;;1.20;1.10;;;19.00;37.90;;;;;;5018936;28;20310;-63
2022/12/21 05:52:08;;;;;;;1.10;1.00;;;19.00;37.90;;;;;;5020354;28;20223;-63
2022/12/21 05:54:34;;;;;;;1.20;1.10;;;19.00;37.90;;;;;;5013710;28;20776;-64
2022/12/21 05:56:59;;;;;;;1.20;1.10;;;19.00;38.00;;;;;;5014197;28;20246;-63
2022/12/21 05:59:25;;;;;;;1.20;1.10;;;19.00;38.00;;;;;;5018536;28;20234;-63
2022/12/21 06:01:50;;;;;;;1.30;1.20;;;19.00;37.90;;;;;;5018657;28;20302;-63
2022/12/21 06:04:16;;;;;;;1.20;1.10;;;19.00;37.90;;;;;;5018285;28;20250;-63
2022/12/21 06:06:41;;;;;;;1.00;1.00;;;19.00;38.00;;;;;;5015555;28;20305;-62
2022/12/21 06:09:07;;;;;;;1.20;1.10;;;19.00;37.90;;;;;;4999919;28;20569;-63
2022/12/21 06:11:32;;;;;;;1.13;0.93;;;19.00;37.90;;;;;;5018399;28;20251;-63
2022/12/21 06:13:58;;;;;;;1.20;1.00;;;19.00;38.00;;;;;;5018198;28;20325;-63
2022/12/21 06:16:25;;;;;;;1.10;1.00;;;19.00;38.00;;;;;;5019076;28;20219;-63
2022/12/21 06:18:52;;;;;;;1.27;1.17;;;19.00;37.90;;;;;;5019108;28;20365;-65
2022/12/21 06:21:18;;;;;;;1.10;0.93;;;19.00;38.00;;;;;;5019801;28;20967;-63
2022/12/21 06:23:45;;;;;;;2.70;1.20;;;19.00;38.00;;;;;;4996276;28;20796;-66
2022/12/21 06:26:13;;;;;;;0.90;0.90;;;19.00;38.70;;;;;;5015092;28;21045;-65
2022/12/21 06:28:39;;;;;;;1.43;1.33;;;19.00;38.10;;;;;;4976688;28;20875;-65
2022/12/21 06:31:10;;;;;;;1.20;1.10;;;19.00;37.90;;;;;;5015199;28;20454;-66
2022/12/21 06:33:36;;;;;;;1.20;1.10;;;19.00;38.00;;;;;;5017270;28;20230;-66
2022/12/21 06:36:03;;;;;;;1.10;1.00;;;19.00;38.00;;;;;;5015723;28;20797;-65
2022/12/21 06:38:30;;;;;;;1.03;0.93;;;19.00;38.00;;;;;;5019755;28;20415;-66
2022/12/21 06:40:59;;;;;;;0.90;0.90;;;19.00;38.00;;;;;;5021212;28;20441;-66
2022/12/21 06:43:26;;;;;;;1.20;1.10;;;19.00;38.00;;;;;;5015167;28;20458;-66
2022/12/21 06:45:56;;;;;;;1.77;1.13;;;19.00;37.90;;;;;;5024683;28;20415;-65
2022/12/21 06:48:22;;;;;;;1.20;1.10;;;19.00;38.00;;;;;;5021189;28;20521;-66
2022/12/21 06:50:56;;;;;;;1.17;1.07;;;19.00;38.00;;;;;;5021935;28;20928;-66
2022/12/21 06:53:27;;;;;;;1.30;1.20;;;19.00;38.00;;;;;;5022828;28;20427;-66
2022/12/21 06:56:11;;;;;;;1.47;1.13;;;19.00;37.90;;;;;;5022198;28;20521;-66
2022/12/21 06:58:37;;;;;;;1.20;1.10;;;19.00;38.00;;;;;;5023408;28;20534;-66
2022/12/21 07:01:08;;;;;;;2.90;1.67;;;19.00;38.00;;;;;;5021145;28;20552;-67
2022/12/21 07:03:34;;;;;;;1.20;1.10;;;19.00;38.00;;;;;;5023395;28;20438;-66
2022/12/21 07:06:01;;;;;;;1.20;1.10;;;19.00;38.00;;;;;;5021058;28;20870;-67
2022/12/21 07:08:27;;;;;;;1.20;1.10;;;19.00;38.00;;;;;;5017945;28;21041;-62
2022/12/21 07:11:12;;;;;;;1.77;1.10;;;19.00;38.00;;;;;;5021037;28;20447;-64
2022/12/21 07:13:40;;;;;;;1.10;1.00;;;19.00;37.90;;;;;;5002784;28;20486;-64
2022/12/21 07:16:06;;;;;;;1.50;1.20;;;19.00;38.00;;;;;;5019775;28;20427;-64
2022/12/21 07:18:34;;;;;;;1.10;1.00;;;19.00;38.10;;;;;;5013280;28;20457;-63
2022/12/21 07:21:03;;;;;;;2.30;1.10;;;19.00;38.80;;;;;;5014781;28;20855;-64
2022/12/21 07:23:31;;;;;;;1.20;1.10;;;19.00;38.00;;;;;;5012407;28;20968;-64
2022/12/21 07:25:56;;;;;;;1.10;1.00;;;19.00;38.10;;;;;;5014904;28;20437;-64
2022/12/21 07:28:23;;;;;;;0.97;0.90;;;19.00;38.00;;;;;;5018032;28;20464;-63
2022/12/21 07:30:49;;;;;;;1.10;1.00;;;19.00;38.10;;;;;;5021706;28;20226;-65
2022/12/21 07:33:18;;;;;;;1.47;1.10;;;19.00;38.10;;;;;;5018057;28;20467;-65
2022/12/21 07:35:47;;;;;;;1.20;1.10;;;19.00;38.00;;;;;;5017209;28;20875;-65
2022/12/21 07:38:13;;;;;;;1.33;1.20;;;19.00;38.00;;;;;;5015080;28;20451;-63
2022/12/21 07:40:39;;;;;;;2.30;0.87;;;19.00;38.10;;;;;;5019816;28;20426;-64
2022/12/21 07:43:10;;;;;;;1.97;1.03;;;19.00;38.10;;;;;;5019609;28;20265;-63
2022/12/21 07:45:39;;;;;;;1.03;1.00;;;19.00;38.90;;;;;;5021149;28;20233;-63
2022/12/21 07:48:05;;;;;;;1.30;1.20;;;19.00;38.10;;;;;;5012134;28;20496;-64
2022/12/21 07:50:31;;;;;;;1.10;0.90;;;19.00;38.10;;;;;;5004988;28;20434;-63
2022/12/21 07:52:58;;;;;;;1.00;0.90;;;19.00;38.10;;;;;;5017883;28;20307;-63
2022/12/21 07:55:24;;;;;;;1.20;1.10;;;19.00;38.10;;;;;;5017041;28;20240;-63
2022/12/21 07:57:49;;;;;;;1.10;1.00;;;19.00;38.20;;;;;;5018682;28;20448;-63
2022/12/21 08:00:15;;;;;;;1.13;1.03;;;19.00;38.20;;;;;;5018014;28;20430;-64
2022/12/21 08:02:41;;;;;;;1.20;1.10;;;19.00;38.20;;;;;;5018826;28;20663;-63
2022/12/21 08:05:07;;;;;;;1.20;1.10;;;19.00;38.20;;;;;;5016859;28;20531;-63
2022/12/21 08:07:32;;;;;;;1.20;1.10;;;19.00;38.20;;;;;;5021227;28;20233;-64
2022/12/21 08:09:58;;;;;;;2.43;1.13;;;19.00;39.00;;;;;;5020508;28;20647;-63
2022/12/21 08:12:23;;;;;;;1.10;1.00;;;19.00;39.10;;;;;;5020227;28;20219;-64
2022/12/21 08:14:49;;;;;;;1.13;1.00;;;19.00;39.10;;;;;;5018298;28;20245;-63
2022/12/21 08:17:14;;;;;;;1.30;1.20;;;19.00;38.30;;;;;;5025384;28;20735;-65
2022/12/21 08:19:40;;;;;;;1.83;1.10;;;19.00;38.30;;;;;;5020070;28;20242;-65
2022/12/21 08:22:05;;;;;;;0.90;0.90;;;19.00;38.30;;;;;;5013793;28;20222;-65
2022/12/21 08:24:31;;;;;;;1.23;1.13;;;19.00;38.30;;;;;;5012212;28;20244;-65
2022/12/21 08:26:56;;;;;;;1.77;0.90;;;19.00;38.30;;;;;;5018087;28;20701;-65
2022/12/21 08:29:22;;;;;;;1.10;1.00;;;19.00;38.30;;;;;;5021605;28;20226;-64
2022/12/21 08:31:47;;;;;;;1.10;1.00;;;19.00;38.30;;;;;;5020736;28;20226;-64
2022/12/21 08:34:13;;;;;;;1.80;1.07;;;19.00;38.30;;;;;;5016814;28;20311;-63
2022/12/21 08:36:38;;;;;;;1.20;1.10;;;19.00;38.30;;;;;;5019119;28;20214;-64
2022/12/21 08:39:04;;;;;;;1.60;0.90;;;19.00;38.30;;;;;;5018615;28;20222;-65
2022/12/21 08:41:29;;;;;;;1.20;1.10;;;19.00;38.30;;;;;;5021585;28;20223;-64
2022/12/21 08:43:55;;;;;;;1.10;1.00;;;19.00;38.30;;;;;;5018960;28;20223;-64
2022/12/21 08:46:21;;;;;;;1.00;0.90;;;19.00;38.30;;;;;;5021786;28;20237;-64
2022/12/21 08:48:49;;;;;;;0.87;0.87;;;19.00;38.30;;;;;;5021090;28;20843;-65
2022/12/21 08:51:15;;;;;;;1.40;1.30;;;19.00;38.30;;;;;;5020032;28;20847;-65
2022/12/21 08:53:40;;;;;;;1.10;1.00;;;19.00;38.30;;;;;;5019549;28;20440;-62
2022/12/21 08:56:06;;;;;;;0.90;0.90;;;19.00;38.30;;;;;;5021838;28;20489;-65
2022/12/21 08:58:33;;;;;;;1.30;1.10;;;19.00;38.30;;;;;;5019855;28;20579;-65
2022/12/21 09:00:58;;;;;;;1.20;1.10;;;19.00;38.30;;;;;;5019963;28;20262;-65
2022/12/21 09:03:26;;;;;;;1.90;1.20;;;19.00;38.30;;;;;;5021774;28;20474;-64
2022/12/21 09:05:56;;;;;;;1.20;1.10;;;19.00;38.30;;;;;;5022457;28;20298;-64
2022/12/21 09:08:23;;;;;;;0.90;0.90;;;19.00;38.30;;;;;;5020040;28;20451;-64
2022/12/21 09:10:48;;;;;;;1.03;0.93;;;19.00;38.30;;;;;;5023114;28;20460;-64
2022/12/21 09:13:14;;;;;;;1.30;1.20;;;19.00;38.30;;;;;;5025853;28;20733;-64
2022/12/21 09:15:43;;;;;;;1.33;1.23;;;19.00;38.30;;;;;;5024876;28;20234;-64
2022/12/21 09:18:10;;;;;;;1.10;1.00;;;19.00;38.30;;;;;;5025974;28;20297;-64
2022/12/21 09:20:35;;;;;;;1.30;1.20;;;19.00;38.30;;;;;;5027085;28;20517;-64
2022/12/21 09:23:01;;;;;;;1.20;1.10;;;18.90;38.20;;;;;;5023976;28;20514;-65
2022/12/21 09:25:27;;;;;;;1.30;1.20;;;19.00;38.30;;;;;;5025955;28;20338;-65
2022/12/21 09:27:52;;;;;;;1.40;1.30;;;19.00;38.30;;;;;;5025102;28;20253;-64
2022/12/21 09:30:18;;;;;;;1.33;1.20;;;18.90;38.20;;;;;;5025677;28;20303;-64
2022/12/21 09:32:44;;;;;;;1.70;1.20;;;19.00;38.30;;;;;;5026426;28;20229;-64
2022/12/21 09:35:10;;;;;;;1.70;1.20;;;19.00;38.30;;;;;;5025522;28;20277;-65
2022/12/21 09:37:36;;;;;;;1.20;1.10;;;19.00;38.30;;;;;;5023660;28;20223;-64
2022/12/21 09:40:04;;;;;;;1.27;1.17;;;19.00;38.30;;;;;;5025736;28;20848;-64
2022/12/21 09:42:48;;;;;;;1.20;1.10;;;19.00;38.30;;;;;;5024944;28;20798;-64
2022/12/21 09:45:21;;;;;;;1.20;1.10;;;19.00;38.30;;;;;;5025663;28;20462;-64
2022/12/21 09:48:03;;;;;;;1.30;1.20;;;18.90;38.20;;;;;;5023036;28;20418;-64
2022/12/21 09:50:49;;;;;;;1.40;1.30;;;18.90;38.20;;;;;;5019946;28;20463;-64
2022/12/21 09:53:38;;;;;;;1.30;1.20;;;18.90;38.20;;;;;;5026184;28;20438;-64
2022/12/21 09:56:05;;;;;;;1.20;1.10;;;19.00;38.40;;;;;;5024713;28;20439;-64
2022/12/21 09:58:44;;;;;;;1.30;1.20;;;19.00;38.30;;;;;;5024822;28;20481;-64
2022/12/21 10:01:21;;;;;;;1.40;1.30;;;18.90;38.20;;;;;;5025081;28;20861;-65
2022/12/21 10:04:00;;;;;;;1.30;1.10;;;18.90;38.20;;;;;;5024315;28;20422;-64
2022/12/21 10:06:38;;;;;;;1.13;1.03;;;19.00;38.30;;;;;;5025586;28;20428;-64
2022/12/21 10:09:34;;;;;;;1.33;1.20;;;18.90;38.20;;;;;;5005961;28;20863;-64
2022/12/21 10:12:09;;;;;;;1.33;1.23;;;18.90;38.20;;;;;;5024398;28;20434;-65
2022/12/21 10:14:47;;;;;;;1.50;1.40;;;18.90;38.20;;;;;;5023079;28;21028;-64
2022/12/21 10:17:28;;;;;;;1.37;1.27;;;18.90;38.20;;;;;;5025699;28;20434;-64
2022/12/21 10:20:16;;;;;;;1.23;1.13;;;18.90;38.20;;;;;;5023661;28;20431;-64
2022/12/21 10:22:52;;;;;;;1.67;1.07;;;18.90;38.20;;;;;;5021548;28;20516;-64
2022/12/21 10:25:21;;;;;;;1.40;1.30;;;18.90;38.20;;;;;;5023417;28;20432;-64
2022/12/21 10:28:10;;;;;;;1.10;1.00;;;18.90;38.20;;;;;;5021247;28;20421;-64
2022/12/21 10:30:38;;;;;;;2.43;1.23;;;18.90;38.20;;;;;;4967459;28;20467;-64
2022/12/21 10:33:06;;;;;;;1.37;1.27;;;18.90;39.00;;;;;;5024691;28;20980;-64
2022/12/21 10:35:36;;;;;;;1.43;1.10;;;18.90;38.20;;;;;;5025177;28;20517;-64
2022/12/21 10:38:09;;;;;;;1.20;1.10;;;18.90;38.20;;;;;;5024472;28;20452;-64
2022/12/21 10:40:36;;;;;;;1.30;1.20;;;18.90;38.20;;;;;;5024576;28;20426;-65
2022/12/21 10:43:02;;;;;;;1.30;1.20;;;18.90;38.20;;;;;;5025305;28;20440;-64
2022/12/21 10:45:28;;;;;;;1.50;1.07;;;19.00;38.30;;;;;;5025006;28;20926;-64
2022/12/21 10:47:54;;;;;;;1.60;1.50;;;18.90;38.20;;;;;;5025201;28;20434;-64
2022/12/21 10:50:25;;;;;;;1.20;1.10;;;18.90;38.20;;;;;;5025060;28;20229;-64
2022/12/21 10:52:56;;;;;;;1.23;1.13;;;18.90;38.20;;;;;;5024394;28;20227;-64
2022/12/21 10:55:21;;;;;;;1.10;1.00;;;18.90;38.20;;;;;;5023861;28;20598;-65
2022/12/21 10:57:50;;;;;;;1.30;1.20;;;19.00;38.30;;;;;;5025329;28;20423;-64
2022/12/21 11:00:31;;;;;;;1.40;1.30;;;18.90;38.20;;;;;;5022816;28;20581;-64
2022/12/21 11:03:03;;;;;;;1.20;1.10;;;19.00;38.30;;;;;;5022908;28;20461;-64
2022/12/21 11:05:28;;;;;;;1.50;1.40;;;18.90;38.20;;;;;;5023073;28;20840;-64
2022/12/21 11:08:13;;;;;;;1.30;1.20;;;18.90;38.20;;;;;;5024734;28;20459;-64
2022/12/21 11:10:47;;;;;;;1.10;1.00;;;18.90;38.20;;;;;;5022234;28;20630;-64
2022/12/21 11:13:14;;;;;;;1.30;1.20;;;18.90;38.20;;;;;;5024333;28;20881;-64
2022/12/21 11:15:57;;;;;;;1.40;1.30;;;18.90;38.20;;;;;;5023811;28;20461;-64
2022/12/21 11:18:42;;;;;;;1.50;1.40;;;18.90;38.20;;;;;;5026221;28;20447;-64
2022/12/21 11:21:39;;;;;;;1.20;1.10;;;18.90;38.20;;;;;;5024259;28;20447;-65
2022/12/21 11:24:16;;;;;;;1.20;1.10;;;18.90;38.20;;;;;;5016800;28;20423;-64
2022/12/21 11:26:45;;;;;;;1.10;1.00;;;18.90;38.20;;;;;;5023480;28;20455;-64
2022/12/21 11:29:19;;;;;;;1.40;1.30;;;18.90;38.20;;;;;;5023704;28;20798;-64
2022/12/21 11:31:45;;;;;;;1.30;1.20;;;18.90;38.20;;;;;;5024582;28;20418;-64
2022/12/21 11:34:28;;;;;;;1.30;1.20;;;19.00;38.40;;;;;;5021281;28;20806;-64
2022/12/21 11:36:56;;;;;;;1.20;1.10;;;18.90;39.00;;;;;;5024395;28;20449;-64
2022/12/21 11:39:23;;;;;;;1.23;1.13;;;18.90;38.20;;;;;;5023968;28;20419;-64
2022/12/21 11:41:53;;;;;;;1.33;1.23;;;19.00;38.30;;;;;;5022263;28;21080;-65
2022/12/21 11:44:29;;;;;;;1.10;1.00;;;18.90;38.20;;;;;;5016659;28;20427;-64
2022/12/21 11:47:17;;;;;;;1.30;1.20;;;18.90;38.20;;;;;;5019576;28;20458;-65
2022/12/21 11:50:20;;;;;;;1.40;1.30;;;18.90;38.20;;;;;;5018077;28;20554;-64
2022/12/21 11:53:18;;;;;;;1.23;1.13;;;18.90;38.20;;;;;;5021791;28;20982;-64
2022/12/21 11:55:49;;;;;;;1.40;1.30;;;18.90;38.20;;;;;;5017455;28;20446;-64
2022/12/21 11:58:27;;;;;;;1.60;1.50;;;18.90;38.20;;;;;;5021118;28;20456;-64
2022/12/21 12:01:04;;;;;;;1.30;1.20;;;18.90;38.20;;;;;;5021938;28;20418;-64
2022/12/21 12:04:08;;;;;;;2.67;1.33;;;18.90;38.20;;;;;;5021273;28;20463;-65
2022/12/21 12:06:41;;;;;;;1.70;1.30;;;18.90;38.20;;;;;;5022094;28;20454;-64
2022/12/21 12:09:37;;;;;;;1.60;1.50;;;18.90;38.20;;;;;;5023026;28;20442;-64
2022/12/21 12:12:14;;;;;;;1.50;1.40;;;18.90;38.20;;;;;;5021806;28;20738;-64
2022/12/21 12:14:58;;;;;;;1.40;1.30;;;18.90;38.20;;;;;;5022147;28;20435;-64
2022/12/21 12:17:44;;;;;;;1.23;1.13;;;18.90;38.20;;;;;;5021492;28;20605;-64
2022/12/21 12:20:12;;;;;;;2.10;1.97;;;19.00;38.30;;;;;;5018763;28;20430;-64
2022/12/21 12:23:19;;;;;;;1.33;1.23;;;18.90;38.20;;;;;;5019522;28;20422;-64
2022/12/21 12:26:40;;;;;;;1.60;1.50;;;19.00;38.30;;;;;;4933012;28;20511;-64
2022/12/21 12:29:16;;;;;;;1.60;1.50;;;18.90;39.00;;;;;;4990976;28;20426;-64
2022/12/21 12:32:07;;;;;;;1.60;1.50;;;18.90;38.20;;;;;;5018284;28;20444;-65
2022/12/21 12:34:55;;;;;;;1.47;1.37;;;18.90;38.20;;;;;;5018314;28;20577;-64
2022/12/21 12:37:49;;;;;;;1.30;1.20;;;18.90;38.20;;;;;;5022076;28;20443;-64
2022/12/21 12:40:22;;;;;;;1.30;1.20;;;18.90;38.20;;;;;;5020243;28;20451;-64
2022/12/21 12:42:56;;;;;;;1.30;1.20;;;18.90;38.20;;;;;;5019959;28;20433;-65
2022/12/21 12:45:45;;;;;;;1.60;1.50;;;19.00;38.30;;;;;;5020582;28;20422;-64
2022/12/21 12:48:48;;;;;;;1.17;1.07;;;19.00;38.30;;;;;;5025590;28;20478;-64
2022/12/21 12:51:38;;;;;;;1.27;1.17;;;19.00;38.30;;;;;;5024382;28;20449;-64
2022/12/21 12:54:16;;;;;;;1.20;1.10;;;18.90;38.20;;;;;;5023375;28;20828;-64
2022/12/21 12:57:09;;;;;;;1.83;1.30;;;19.00;38.30;;;;;;5023545;28;20422;-64
2022/12/21 12:59:47;;;;;;;1.30;1.20;;;18.90;38.20;;;;;;5018073;28;20431;-64
2022/12/21 13:02:35;;;;;;;1.30;1.20;;;18.90;38.20;;;;;;5017989;28;20453;-64
2022/12/21 13:05:09;;;;;;;1.10;1.00;;;19.00;38.30;;;;;;5021462;28;20431;-64
2022/12/21 13:07:38;;;;;;;1.30;1.20;;;18.90;38.20;;;;;;5025393;28;20470;-63
2022/12/21 13:10:04;;;;;;;1.10;1.00;;;18.90;38.20;;;;;;5025141;28;20468;-64
2022/12/21 13:12:39;;;;;;;1.30;1.20;;;19.00;38.30;;;;;;5026306;28;20482;-64
2022/12/21 13:15:11;;;;;;;1.03;0.97;;;18.90;38.20;;;;;;5025632;28;20241;-65
2022/12/21 13:17:43;;;;;;;1.27;1.17;;;18.90;38.20;;;;;;5024833;28;20430;-64
2022/12/21 13:20:15;;;;;;;1.50;1.40;;;19.00;38.30;;;;;;5025171;28;20436;-64
2022/12/21 13:22:42;;;;;;;1.07;0.97;;;19.00;38.30;;;;;;5025555;28;20459;-64
2022/12/21 13:25:20;;;;;;;1.20;1.10;;;19.00;38.30;;;;;;5025937;28;20433;-64